sensor_id;sensor_type;location;lat;lon;timestamp;P1;durP1;ratioP1;P2;durP2;ratioP2
17177;SDS011;8704;52.006;4.374;2024-03-17T00:01:53;12.25;;;6.88;;
17177;SDS011;8704;52.006;4.374;2024-03-17T00:04:21;11.23;;;6.97;;
17177;SDS011;8704;52.006;4.374;2024-03-17T00:06:48;14.40;;;7.07;;
17177;SDS011;8704;52.006;4.374;2024-03-17T00:09:16;11.65;;;6.70;;
17177;SDS011;8704;52.006;4.374;2024-03-17T00:11:43;12.68;;;7.03;;
17177;SDS011;8704;52.006;4.374;2024-03-17T00:14:11;14.40;;;7.07;;
17177;SDS011;8704;52.006;4.374;2024-03-17T00:16:38;11.07;;;6.50;;
17177;SDS011;8704;52.006;4.374;2024-03-17T00:19:05;14.25;;;7.15;;
17177;SDS011;8704;52.006;4.374;2024-03-17T00:21:31;11.35;;;6.50;;
17177;SDS011;8704;52.006;4.374;2024-03-17T00:24:00;13.80;;;6.82;;
17177;SDS011;8704;52.006;4.374;2024-03-17T00:26:27;14.95;;;7.00;;
17177;SDS011;8704;52.006;4.374;2024-03-17T00:28:55;13.98;;;6.22;;
17177;SDS011;8704;52.006;4.374;2024-03-17T00:31:21;10.63;;;6.50;;
17177;SDS011;8704;52.006;4.374;2024-03-17T00:33:51;14.15;;;6.57;;
17177;SDS011;8704;52.006;4.374;2024-03-17T00:36:17;10.40;;;7.00;;
17177;SDS011;8704;52.006;4.374;2024-03-17T00:38:45;13.00;;;6.97;;
17177;SDS011;8704;52.006;4.374;2024-03-17T00:41:13;14.85;;;6.85;;
17177;SDS011;8704;52.006;4.374;2024-03-17T00:43:41;10.18;;;6.10;;
17177;SDS011;8704;52.006;4.374;2024-03-17T00:46:07;10.77;;;5.85;;
17177;SDS011;8704;52.006;4.374;2024-03-17T00:48:34;9.23;;;6.10;;
17177;SDS011;8704;52.006;4.374;2024-03-17T00:51:01;11.57;;;5.63;;
17177;SDS011;8704;52.006;4.374;2024-03-17T00:53:28;12.82;;;5.60;;
17177;SDS011;8704;52.006;4.374;2024-03-17T00:55:55;11.82;;;6.18;;
17177;SDS011;8704;52.006;4.374;2024-03-17T00:58:24;11.55;;;6.20;;
17177;SDS011;8704;52.006;4.374;2024-03-17T01:00:51;10.98;;;6.03;;
17177;SDS011;8704;52.006;4.374;2024-03-17T01:03:19;9.45;;;5.63;;
17177;SDS011;8704;52.006;4.374;2024-03-17T01:05:46;10.63;;;5.32;;
17177;SDS011;8704;52.006;4.374;2024-03-17T01:08:15;8.93;;;5.57;;
17177;SDS011;8704;52.006;4.374;2024-03-17T01:10:42;7.65;;;5.38;;
17177;SDS011;8704;52.006;4.374;2024-03-17T01:13:09;9.45;;;5.35;;
17177;SDS011;8704;52.006;4.374;2024-03-17T01:15:37;10.52;;;5.70;;
17177;SDS011;8704;52.006;4.374;2024-03-17T01:18:05;9.73;;;5.22;;
17177;SDS011;8704;52.006;4.374;2024-03-17T01:20:31;9.48;;;5.70;;
17177;SDS011;8704;52.006;4.374;2024-03-17T01:22:59;12.77;;;6.25;;
17177;SDS011;8704;52.006;4.374;2024-03-17T01:25:26;9.23;;;5.90;;
17177;SDS011;8704;52.006;4.374;2024-03-17T01:27:54;9.35;;;5.90;;
17177;SDS011;8704;52.006;4.374;2024-03-17T01:30:21;14.00;;;6.57;;
17177;SDS011;8704;52.006;4.374;2024-03-17T01:32:51;9.15;;;6.30;;
17177;SDS011;8704;52.006;4.374;2024-03-17T01:35:17;11.00;;;6.40;;
17177;SDS011;8704;52.006;4.374;2024-03-17T01:37:45;9.95;;;6.32;;
17177;SDS011;8704;52.006;4.374;2024-03-17T01:40:11;11.65;;;6.43;;
17177;SDS011;8704;52.006;4.374;2024-03-17T01:42:39;12.90;;;6.47;;
17177;SDS011;8704;52.006;4.374;2024-03-17T01:45:18;12.88;;;6.50;;
17177;SDS011;8704;52.006;4.374;2024-03-17T01:47:46;12.50;;;7.72;;
17177;SDS011;8704;52.006;4.374;2024-03-17T01:50:15;12.15;;;6.93;;
17177;SDS011;8704;52.006;4.374;2024-03-17T01:52:45;10.82;;;6.97;;
17177;SDS011;8704;52.006;4.374;2024-03-17T01:55:12;14.00;;;8.38;;
17177;SDS011;8704;52.006;4.374;2024-03-17T01:57:38;10.18;;;7.32;;
17177;SDS011;8704;52.006;4.374;2024-03-17T02:00:06;13.15;;;7.82;;
17177;SDS011;8704;52.006;4.374;2024-03-17T02:02:33;11.00;;;7.45;;
17177;SDS011;8704;52.006;4.374;2024-03-17T02:05:01;10.20;;;7.47;;
17177;SDS011;8704;52.006;4.374;2024-03-17T02:07:29;12.02;;;7.53;;
17177;SDS011;8704;52.006;4.374;2024-03-17T02:09:57;10.85;;;7.90;;
17177;SDS011;8704;52.006;4.374;2024-03-17T02:12:23;10.20;;;7.88;;
17177;SDS011;8704;52.006;4.374;2024-03-17T02:14:51;13.82;;;8.65;;
17177;SDS011;8704;52.006;4.374;2024-03-17T02:17:17;14.10;;;9.07;;
17177;SDS011;8704;52.006;4.374;2024-03-17T02:19:44;12.15;;;8.45;;
17177;SDS011;8704;52.006;4.374;2024-03-17T02:22:13;15.35;;;9.15;;
17177;SDS011;8704;52.006;4.374;2024-03-17T02:24:42;11.65;;;8.52;;
17177;SDS011;8704;52.006;4.374;2024-03-17T02:27:08;11.70;;;8.55;;
17177;SDS011;8704;52.006;4.374;2024-03-17T02:29:36;11.20;;;9.35;;
17177;SDS011;8704;52.006;4.374;2024-03-17T02:32:02;10.32;;;8.95;;
17177;SDS011;8704;52.006;4.374;2024-03-17T02:34:32;11.18;;;9.65;;
17177;SDS011;8704;52.006;4.374;2024-03-17T02:37:00;12.73;;;9.07;;
17177;SDS011;8704;52.006;4.374;2024-03-17T02:39:28;11.38;;;9.05;;
17177;SDS011;8704;52.006;4.374;2024-03-17T02:42:01;11.75;;;8.85;;
17177;SDS011;8704;52.006;4.374;2024-03-17T02:44:27;13.05;;;9.25;;
17177;SDS011;8704;52.006;4.374;2024-03-17T02:46:55;11.68;;;8.90;;
17177;SDS011;8704;52.006;4.374;2024-03-17T02:49:24;12.73;;;8.68;;
17177;SDS011;8704;52.006;4.374;2024-03-17T02:51:52;11.25;;;8.55;;
17177;SDS011;8704;52.006;4.374;2024-03-17T02:54:20;12.20;;;8.57;;
17177;SDS011;8704;52.006;4.374;2024-03-17T02:56:49;12.10;;;8.60;;
17177;SDS011;8704;52.006;4.374;2024-03-17T02:59:16;11.13;;;8.27;;
17177;SDS011;8704;52.006;4.374;2024-03-17T03:01:43;14.02;;;8.73;;
17177;SDS011;8704;52.006;4.374;2024-03-17T03:04:11;12.30;;;8.05;;
17177;SDS011;8704;52.006;4.374;2024-03-17T03:06:38;12.13;;;8.30;;
17177;SDS011;8704;52.006;4.374;2024-03-17T03:09:06;11.13;;;8.18;;
17177;SDS011;8704;52.006;4.374;2024-03-17T03:11:38;11.63;;;8.80;;
17177;SDS011;8704;52.006;4.374;2024-03-17T03:14:07;12.10;;;8.20;;
17177;SDS011;8704;52.006;4.374;2024-03-17T03:16:35;12.10;;;8.40;;
17177;SDS011;8704;52.006;4.374;2024-03-17T03:19:02;12.35;;;8.68;;
17177;SDS011;8704;52.006;4.374;2024-03-17T03:21:30;15.10;;;8.60;;
17177;SDS011;8704;52.006;4.374;2024-03-17T03:23:58;11.52;;;8.15;;
17177;SDS011;8704;52.006;4.374;2024-03-17T03:26:25;14.07;;;7.57;;
17177;SDS011;8704;52.006;4.374;2024-03-17T03:28:53;11.57;;;7.55;;
17177;SDS011;8704;52.006;4.374;2024-03-17T03:31:23;12.32;;;8.60;;
17177;SDS011;8704;52.006;4.374;2024-03-17T03:33:50;11.95;;;8.25;;
17177;SDS011;8704;52.006;4.374;2024-03-17T03:36:17;10.98;;;8.32;;
17177;SDS011;8704;52.006;4.374;2024-03-17T03:38:46;15.23;;;8.82;;
17177;SDS011;8704;52.006;4.374;2024-03-17T03:41:14;11.50;;;8.50;;
17177;SDS011;8704;52.006;4.374;2024-03-17T03:43:41;12.10;;;9.15;;
17177;SDS011;8704;52.006;4.374;2024-03-17T03:46:11;10.32;;;8.15;;
17177;SDS011;8704;52.006;4.374;2024-03-17T03:48:40;11.68;;;8.52;;
17177;SDS011;8704;52.006;4.374;2024-03-17T03:51:08;13.20;;;8.60;;
17177;SDS011;8704;52.006;4.374;2024-03-17T03:53:36;10.77;;;8.32;;
17177;SDS011;8704;52.006;4.374;2024-03-17T03:56:04;12.20;;;8.10;;
17177;SDS011;8704;52.006;4.374;2024-03-17T03:58:32;13.27;;;8.90;;
17177;SDS011;8704;52.006;4.374;2024-03-17T04:01:00;10.05;;;8.48;;
17177;SDS011;8704;52.006;4.374;2024-03-17T04:03:27;13.35;;;8.38;;
17177;SDS011;8704;52.006;4.374;2024-03-17T04:06:01;10.80;;;8.88;;
17177;SDS011;8704;52.006;4.374;2024-03-17T04:08:29;10.20;;;7.93;;
17177;SDS011;8704;52.006;4.374;2024-03-17T04:10:57;9.80;;;8.80;;
17177;SDS011;8704;52.006;4.374;2024-03-17T04:13:26;13.05;;;8.88;;
17177;SDS011;8704;52.006;4.374;2024-03-17T04:15:54;11.45;;;8.00;;
17177;SDS011;8704;52.006;4.374;2024-03-17T04:18:22;11.57;;;8.90;;
17177;SDS011;8704;52.006;4.374;2024-03-17T04:20:51;13.48;;;9.10;;
17177;SDS011;8704;52.006;4.374;2024-03-17T04:23:20;11.75;;;9.20;;
17177;SDS011;8704;52.006;4.374;2024-03-17T04:25:48;14.13;;;9.10;;
17177;SDS011;8704;52.006;4.374;2024-03-17T04:28:15;13.43;;;8.52;;
17177;SDS011;8704;52.006;4.374;2024-03-17T04:30:42;13.60;;;9.00;;
17177;SDS011;8704;52.006;4.374;2024-03-17T04:33:11;12.77;;;9.40;;
17177;SDS011;8704;52.006;4.374;2024-03-17T04:35:38;13.43;;;9.00;;
17177;SDS011;8704;52.006;4.374;2024-03-17T04:38:06;13.02;;;10.23;;
17177;SDS011;8704;52.006;4.374;2024-03-17T04:40:39;12.18;;;9.43;;
17177;SDS011;8704;52.006;4.374;2024-03-17T04:43:06;12.38;;;10.57;;
17177;SDS011;8704;52.006;4.374;2024-03-17T04:45:34;11.52;;;9.30;;
17177;SDS011;8704;52.006;4.374;2024-03-17T04:48:03;13.57;;;9.85;;
17177;SDS011;8704;52.006;4.374;2024-03-17T04:50:30;12.65;;;9.55;;
17177;SDS011;8704;52.006;4.374;2024-03-17T04:52:58;13.93;;;10.52;;
17177;SDS011;8704;52.006;4.374;2024-03-17T04:55:25;11.30;;;9.43;;
17177;SDS011;8704;52.006;4.374;2024-03-17T04:57:54;12.73;;;10.90;;
17177;SDS011;8704;52.006;4.374;2024-03-17T05:00:21;12.27;;;9.93;;
17177;SDS011;8704;52.006;4.374;2024-03-17T05:02:52;14.10;;;10.57;;
17177;SDS011;8704;52.006;4.374;2024-03-17T05:05:19;12.95;;;10.40;;
17177;SDS011;8704;52.006;4.374;2024-03-17T05:07:49;14.60;;;10.32;;
17177;SDS011;8704;52.006;4.374;2024-03-17T05:10:16;12.45;;;9.88;;
17177;SDS011;8704;52.006;4.374;2024-03-17T05:12:44;14.73;;;11.18;;
17177;SDS011;8704;52.006;4.374;2024-03-17T05:15:14;15.35;;;11.85;;
17177;SDS011;8704;52.006;4.374;2024-03-17T05:17:42;13.95;;;11.13;;
17177;SDS011;8704;52.006;4.374;2024-03-17T05:20:09;15.80;;;10.77;;
17177;SDS011;8704;52.006;4.374;2024-03-17T05:22:38;12.95;;;11.23;;
17177;SDS011;8704;52.006;4.374;2024-03-17T05:25:06;13.50;;;11.45;;
17177;SDS011;8704;52.006;4.374;2024-03-17T05:27:33;12.95;;;11.10;;
17177;SDS011;8704;52.006;4.374;2024-03-17T05:30:01;14.40;;;11.98;;
17177;SDS011;8704;52.006;4.374;2024-03-17T05:32:30;14.75;;;11.82;;
17177;SDS011;8704;52.006;4.374;2024-03-17T05:34:58;15.38;;;11.60;;
17177;SDS011;8704;52.006;4.374;2024-03-17T05:37:25;14.90;;;11.05;;
17177;SDS011;8704;52.006;4.374;2024-03-17T05:39:53;14.73;;;10.88;;
17177;SDS011;8704;52.006;4.374;2024-03-17T05:42:21;13.30;;;11.20;;
17177;SDS011;8704;52.006;4.374;2024-03-17T05:44:48;12.90;;;11.20;;
17177;SDS011;8704;52.006;4.374;2024-03-17T05:47:16;15.55;;;11.15;;
17177;SDS011;8704;52.006;4.374;2024-03-17T05:49:45;15.57;;;11.55;;
17177;SDS011;8704;52.006;4.374;2024-03-17T05:52:13;14.32;;;11.60;;
17177;SDS011;8704;52.006;4.374;2024-03-17T05:54:40;14.95;;;11.95;;
17177;SDS011;8704;52.006;4.374;2024-03-17T05:57:08;16.13;;;12.10;;
17177;SDS011;8704;52.006;4.374;2024-03-17T05:59:37;15.52;;;11.40;;
17177;SDS011;8704;52.006;4.374;2024-03-17T06:02:05;14.40;;;11.88;;
17177;SDS011;8704;52.006;4.374;2024-03-17T06:04:35;15.48;;;12.10;;
17177;SDS011;8704;52.006;4.374;2024-03-17T06:07:05;14.10;;;11.82;;
17177;SDS011;8704;52.006;4.374;2024-03-17T06:09:32;14.57;;;11.73;;
17177;SDS011;8704;52.006;4.374;2024-03-17T06:11:59;15.88;;;11.85;;
17177;SDS011;8704;52.006;4.374;2024-03-17T06:14:27;15.80;;;12.10;;
17177;SDS011;8704;52.006;4.374;2024-03-17T06:16:54;15.35;;;12.23;;
17177;SDS011;8704;52.006;4.374;2024-03-17T06:19:22;13.35;;;11.45;;
17177;SDS011;8704;52.006;4.374;2024-03-17T06:21:49;15.43;;;10.85;;
17177;SDS011;8704;52.006;4.374;2024-03-17T06:24:18;15.23;;;12.05;;
17177;SDS011;8704;52.006;4.374;2024-03-17T06:26:45;15.80;;;11.65;;
17177;SDS011;8704;52.006;4.374;2024-03-17T06:29:14;15.80;;;11.85;;
17177;SDS011;8704;52.006;4.374;2024-03-17T06:31:41;15.55;;;11.77;;
17177;SDS011;8704;52.006;4.374;2024-03-17T06:34:13;14.95;;;11.75;;
17177;SDS011;8704;52.006;4.374;2024-03-17T06:36:41;16.25;;;11.70;;
17177;SDS011;8704;52.006;4.374;2024-03-17T06:39:08;14.75;;;11.68;;
17177;SDS011;8704;52.006;4.374;2024-03-17T06:41:37;16.15;;;13.75;;
17177;SDS011;8704;52.006;4.374;2024-03-17T06:44:05;15.57;;;12.85;;
17177;SDS011;8704;52.006;4.374;2024-03-17T06:46:33;14.23;;;11.45;;
17177;SDS011;8704;52.006;4.374;2024-03-17T06:49:00;17.17;;;12.27;;
17177;SDS011;8704;52.006;4.374;2024-03-17T06:51:28;13.73;;;11.05;;
17177;SDS011;8704;52.006;4.374;2024-03-17T06:53:55;13.73;;;12.20;;
17177;SDS011;8704;52.006;4.374;2024-03-17T06:56:24;16.23;;;12.43;;
17177;SDS011;8704;52.006;4.374;2024-03-17T06:58:52;15.68;;;12.02;;
17177;SDS011;8704;52.006;4.374;2024-03-17T07:01:20;14.00;;;11.38;;
17177;SDS011;8704;52.006;4.374;2024-03-17T07:03:46;17.98;;;10.43;;
17177;SDS011;8704;52.006;4.374;2024-03-17T07:06:14;14.65;;;11.10;;
17177;SDS011;8704;52.006;4.374;2024-03-17T07:08:41;17.58;;;12.00;;
17177;SDS011;8704;52.006;4.374;2024-03-17T07:11:07;14.38;;;10.77;;
17177;SDS011;8704;52.006;4.374;2024-03-17T07:13:35;13.95;;;10.90;;
17177;SDS011;8704;52.006;4.374;2024-03-17T07:16:05;12.52;;;10.02;;
17177;SDS011;8704;52.006;4.374;2024-03-17T07:18:33;14.48;;;10.60;;
17177;SDS011;8704;52.006;4.374;2024-03-17T07:21:01;14.25;;;11.07;;
17177;SDS011;8704;52.006;4.374;2024-03-17T07:23:29;12.18;;;10.68;;
17177;SDS011;8704;52.006;4.374;2024-03-17T07:25:57;14.88;;;11.00;;
17177;SDS011;8704;52.006;4.374;2024-03-17T07:28:25;15.27;;;11.52;;
17177;SDS011;8704;52.006;4.374;2024-03-17T07:30:53;15.80;;;10.60;;
17177;SDS011;8704;52.006;4.374;2024-03-17T07:33:22;14.23;;;11.38;;
17177;SDS011;8704;52.006;4.374;2024-03-17T07:35:50;13.35;;;10.50;;
17177;SDS011;8704;52.006;4.374;2024-03-17T07:38:18;13.10;;;10.70;;
17177;SDS011;8704;52.006;4.374;2024-03-17T07:40:45;13.60;;;10.50;;
17177;SDS011;8704;52.006;4.374;2024-03-17T07:43:22;14.45;;;10.90;;
17177;SDS011;8704;52.006;4.374;2024-03-17T07:45:56;14.30;;;11.10;;
17177;SDS011;8704;52.006;4.374;2024-03-17T07:48:25;12.73;;;10.70;;
17177;SDS011;8704;52.006;4.374;2024-03-17T07:50:56;13.18;;;10.70;;
17177;SDS011;8704;52.006;4.374;2024-03-17T07:53:23;12.35;;;10.80;;
17177;SDS011;8704;52.006;4.374;2024-03-17T07:55:58;15.25;;;10.77;;
17177;SDS011;8704;52.006;4.374;2024-03-17T07:58:26;14.32;;;11.10;;
17177;SDS011;8704;52.006;4.374;2024-03-17T08:00:56;14.30;;;10.68;;
17177;SDS011;8704;52.006;4.374;2024-03-17T08:05:54;15.60;;;9.65;;
17177;SDS011;8704;52.006;4.374;2024-03-17T08:08:21;12.27;;;10.35;;
17177;SDS011;8704;52.006;4.374;2024-03-17T08:10:49;11.65;;;10.35;;
17177;SDS011;8704;52.006;4.374;2024-03-17T08:13:16;17.65;;;10.43;;
17177;SDS011;8704;52.006;4.374;2024-03-17T08:15:44;16.80;;;11.20;;
17177;SDS011;8704;52.006;4.374;2024-03-17T08:18:11;12.98;;;10.40;;
17177;SDS011;8704;52.006;4.374;2024-03-17T08:20:39;12.18;;;9.77;;
17177;SDS011;8704;52.006;4.374;2024-03-17T08:23:09;14.20;;;10.25;;
17177;SDS011;8704;52.006;4.374;2024-03-17T08:25:37;12.10;;;10.32;;
17177;SDS011;8704;52.006;4.374;2024-03-17T08:28:04;14.52;;;10.05;;
17177;SDS011;8704;52.006;4.374;2024-03-17T08:30:32;13.98;;;10.07;;
17177;SDS011;8704;52.006;4.374;2024-03-17T08:32:59;11.70;;;10.02;;
17177;SDS011;8704;52.006;4.374;2024-03-17T08:35:27;14.68;;;10.55;;
17177;SDS011;8704;52.006;4.374;2024-03-17T08:37:54;11.88;;;9.95;;
17177;SDS011;8704;52.006;4.374;2024-03-17T08:40:23;12.30;;;10.88;;
17177;SDS011;8704;52.006;4.374;2024-03-17T08:42:50;12.73;;;10.80;;
17177;SDS011;8704;52.006;4.374;2024-03-17T08:45:18;11.88;;;10.40;;
17177;SDS011;8704;52.006;4.374;2024-03-17T08:47:45;13.02;;;10.20;;
17177;SDS011;8704;52.006;4.374;2024-03-17T08:50:18;14.50;;;10.57;;
17177;SDS011;8704;52.006;4.374;2024-03-17T08:52:45;16.25;;;10.93;;
17177;SDS011;8704;52.006;4.374;2024-03-17T08:55:12;12.82;;;10.18;;
17177;SDS011;8704;52.006;4.374;2024-03-17T08:57:41;13.43;;;10.63;;
17177;SDS011;8704;52.006;4.374;2024-03-17T09:00:09;12.85;;;9.43;;
17177;SDS011;8704;52.006;4.374;2024-03-17T09:02:36;11.57;;;9.77;;
17177;SDS011;8704;52.006;4.374;2024-03-17T09:05:04;12.02;;;9.52;;
17177;SDS011;8704;52.006;4.374;2024-03-17T09:07:31;11.32;;;10.02;;
17177;SDS011;8704;52.006;4.374;2024-03-17T09:09:59;12.65;;;9.45;;
17177;SDS011;8704;52.006;4.374;2024-03-17T09:12:26;13.05;;;9.27;;
17177;SDS011;8704;52.006;4.374;2024-03-17T09:14:55;12.13;;;9.85;;
17177;SDS011;8704;52.006;4.374;2024-03-17T09:17:22;10.35;;;9.10;;
17177;SDS011;8704;52.006;4.374;2024-03-17T09:19:50;12.38;;;10.25;;
17177;SDS011;8704;52.006;4.374;2024-03-17T09:22:17;15.05;;;10.40;;
17177;SDS011;8704;52.006;4.374;2024-03-17T09:24:45;12.57;;;9.18;;
17177;SDS011;8704;52.006;4.374;2024-03-17T09:27:12;12.05;;;9.40;;
17177;SDS011;8704;52.006;4.374;2024-03-17T09:29:45;12.82;;;9.38;;
17177;SDS011;8704;52.006;4.374;2024-03-17T09:32:14;11.23;;;9.10;;
17177;SDS011;8704;52.006;4.374;2024-03-17T09:34:43;12.82;;;8.95;;
17177;SDS011;8704;52.006;4.374;2024-03-17T09:37:10;11.68;;;9.45;;
17177;SDS011;8704;52.006;4.374;2024-03-17T09:39:40;10.23;;;8.63;;
17177;SDS011;8704;52.006;4.374;2024-03-17T09:42:10;13.23;;;8.95;;
17177;SDS011;8704;52.006;4.374;2024-03-17T09:44:43;11.70;;;8.40;;
17177;SDS011;8704;52.006;4.374;2024-03-17T09:47:16;11.02;;;8.80;;
17177;SDS011;8704;52.006;4.374;2024-03-17T09:49:46;9.73;;;8.13;;
17177;SDS011;8704;52.006;4.374;2024-03-17T09:52:16;11.30;;;8.70;;
17177;SDS011;8704;52.006;4.374;2024-03-17T09:54:45;11.40;;;8.60;;
17177;SDS011;8704;52.006;4.374;2024-03-17T09:57:14;11.15;;;8.52;;
17177;SDS011;8704;52.006;4.374;2024-03-17T09:59:43;12.18;;;8.55;;
17177;SDS011;8704;52.006;4.374;2024-03-17T10:02:18;11.77;;;8.63;;
17177;SDS011;8704;52.006;4.374;2024-03-17T10:04:45;11.25;;;8.75;;
17177;SDS011;8704;52.006;4.374;2024-03-17T10:07:13;11.70;;;7.85;;
17177;SDS011;8704;52.006;4.374;2024-03-17T10:09:41;13.98;;;8.65;;
17177;SDS011;8704;52.006;4.374;2024-03-17T10:14:58;12.48;;;8.40;;
17177;SDS011;8704;52.006;4.374;2024-03-17T10:17:33;9.45;;;7.90;;
17177;SDS011;8704;52.006;4.374;2024-03-17T10:20:14;10.45;;;7.57;;
17177;SDS011;8704;52.006;4.374;2024-03-17T10:22:57;9.80;;;7.72;;
17177;SDS011;8704;52.006;4.374;2024-03-17T10:25:24;11.82;;;8.43;;
17177;SDS011;8704;52.006;4.374;2024-03-17T10:27:52;10.00;;;7.65;;
17177;SDS011;8704;52.006;4.374;2024-03-17T10:30:19;9.93;;;7.30;;
17177;SDS011;8704;52.006;4.374;2024-03-17T10:32:53;11.70;;;7.43;;
17177;SDS011;8704;52.006;4.374;2024-03-17T10:35:27;11.02;;;7.40;;
17177;SDS011;8704;52.006;4.374;2024-03-17T10:37:55;11.68;;;7.43;;
17177;SDS011;8704;52.006;4.374;2024-03-17T10:40:23;11.02;;;7.38;;
17177;SDS011;8704;52.006;4.374;2024-03-17T10:42:51;11.82;;;7.60;;
17177;SDS011;8704;52.006;4.374;2024-03-17T10:45:18;15.27;;;7.63;;
17177;SDS011;8704;52.006;4.374;2024-03-17T10:47:47;10.20;;;6.97;;
17177;SDS011;8704;52.006;4.374;2024-03-17T10:50:17;9.52;;;6.93;;
17177;SDS011;8704;52.006;4.374;2024-03-17T10:52:45;9.13;;;6.63;;
17177;SDS011;8704;52.006;4.374;2024-03-17T10:55:22;10.38;;;7.22;;
17177;SDS011;8704;52.006;4.374;2024-03-17T10:57:50;10.60;;;6.78;;
17177;SDS011;8704;52.006;4.374;2024-03-17T11:00:19;10.18;;;7.38;;
17177;SDS011;8704;52.006;4.374;2024-03-17T11:02:47;11.95;;;7.18;;
17177;SDS011;8704;52.006;4.374;2024-03-17T11:05:18;11.27;;;7.05;;
17177;SDS011;8704;52.006;4.374;2024-03-17T11:07:46;11.10;;;7.10;;
17177;SDS011;8704;52.006;4.374;2024-03-17T11:10:15;10.70;;;7.35;;
17177;SDS011;8704;52.006;4.374;2024-03-17T11:12:43;10.70;;;7.80;;
17177;SDS011;8704;52.006;4.374;2024-03-17T11:23:13;13.00;;;8.05;;
17177;SDS011;8704;52.006;4.374;2024-03-17T11:25:52;11.43;;;7.88;;
17177;SDS011;8704;52.006;4.374;2024-03-17T11:31:02;12.70;;;7.43;;
17177;SDS011;8704;52.006;4.374;2024-03-17T11:33:49;10.15;;;8.07;;
17177;SDS011;8704;52.006;4.374;2024-03-17T11:36:29;10.63;;;7.70;;
17177;SDS011;8704;52.006;4.374;2024-03-17T11:38:59;11.95;;;7.57;;
17177;SDS011;8704;52.006;4.374;2024-03-17T11:41:36;13.15;;;7.88;;
17177;SDS011;8704;52.006;4.374;2024-03-17T11:44:13;12.75;;;7.72;;
17177;SDS011;8704;52.006;4.374;2024-03-17T11:46:40;11.90;;;7.72;;
17177;SDS011;8704;52.006;4.374;2024-03-17T11:49:10;11.57;;;7.63;;
17177;SDS011;8704;52.006;4.374;2024-03-17T11:51:42;12.82;;;7.53;;
17177;SDS011;8704;52.006;4.374;2024-03-17T11:54:13;12.25;;;7.82;;
17177;SDS011;8704;52.006;4.374;2024-03-17T11:56:43;12.30;;;7.78;;
17177;SDS011;8704;52.006;4.374;2024-03-17T11:59:11;10.48;;;7.25;;
17177;SDS011;8704;52.006;4.374;2024-03-17T12:01:37;11.00;;;7.55;;
17177;SDS011;8704;52.006;4.374;2024-03-17T12:04:08;11.02;;;7.88;;
17177;SDS011;8704;52.006;4.374;2024-03-17T12:06:35;11.10;;;7.68;;
17177;SDS011;8704;52.006;4.374;2024-03-17T12:09:10;11.45;;;7.82;;
17177;SDS011;8704;52.006;4.374;2024-03-17T12:11:38;12.48;;;7.75;;
17177;SDS011;8704;52.006;4.374;2024-03-17T12:14:11;12.55;;;7.78;;
17177;SDS011;8704;52.006;4.374;2024-03-17T12:16:38;11.55;;;6.90;;
17177;SDS011;8704;52.006;4.374;2024-03-17T12:19:13;12.27;;;7.18;;
17177;SDS011;8704;52.006;4.374;2024-03-17T12:21:42;11.23;;;7.22;;
17177;SDS011;8704;52.006;4.374;2024-03-17T12:24:13;10.52;;;7.05;;
17177;SDS011;8704;52.006;4.374;2024-03-17T12:26:43;9.85;;;7.43;;
17177;SDS011;8704;52.006;4.374;2024-03-17T12:29:22;11.68;;;7.63;;
17177;SDS011;8704;52.006;4.374;2024-03-17T12:31:50;10.25;;;6.60;;
17177;SDS011;8704;52.006;4.374;2024-03-17T12:34:17;13.63;;;7.15;;
17177;SDS011;8704;52.006;4.374;2024-03-17T12:36:45;10.93;;;7.13;;
17177;SDS011;8704;52.006;4.374;2024-03-17T12:39:15;12.30;;;7.07;;
17177;SDS011;8704;52.006;4.374;2024-03-17T12:41:52;11.15;;;7.72;;
17177;SDS011;8704;52.006;4.374;2024-03-17T12:46:55;11.35;;;7.00;;
17177;SDS011;8704;52.006;4.374;2024-03-17T12:49:22;10.45;;;6.88;;
17177;SDS011;8704;52.006;4.374;2024-03-17T12:51:51;10.05;;;6.32;;
17177;SDS011;8704;52.006;4.374;2024-03-17T12:54:19;12.77;;;7.45;;
17177;SDS011;8704;52.006;4.374;2024-03-17T12:56:49;10.63;;;6.55;;
17177;SDS011;8704;52.006;4.374;2024-03-17T12:59:46;10.68;;;6.32;;
17177;SDS011;8704;52.006;4.374;2024-03-17T13:02:30;9.02;;;6.30;;
17177;SDS011;8704;52.006;4.374;2024-03-17T13:05:07;12.00;;;6.53;;
17177;SDS011;8704;52.006;4.374;2024-03-17T13:07:38;10.52;;;6.50;;
17177;SDS011;8704;52.006;4.374;2024-03-17T13:10:05;11.07;;;6.82;;
17177;SDS011;8704;52.006;4.374;2024-03-17T13:12:35;12.10;;;6.78;;
17177;SDS011;8704;52.006;4.374;2024-03-17T13:15:02;11.88;;;6.45;;
17177;SDS011;8704;52.006;4.374;2024-03-17T13:17:30;11.27;;;7.25;;
17177;SDS011;8704;52.006;4.374;2024-03-17T13:19:59;10.50;;;5.90;;
17177;SDS011;8704;52.006;4.374;2024-03-17T13:22:26;16.73;;;8.80;;
17177;SDS011;8704;52.006;4.374;2024-03-17T13:24:54;12.48;;;5.95;;
17177;SDS011;8704;52.006;4.374;2024-03-17T13:27:21;12.15;;;6.63;;
17177;SDS011;8704;52.006;4.374;2024-03-17T13:29:50;10.43;;;6.30;;
17177;SDS011;8704;52.006;4.374;2024-03-17T13:32:19;8.75;;;5.88;;
17177;SDS011;8704;52.006;4.374;2024-03-17T13:34:46;15.65;;;6.53;;
17177;SDS011;8704;52.006;4.374;2024-03-17T13:37:15;14.45;;;6.07;;
17177;SDS011;8704;52.006;4.374;2024-03-17T13:39:43;10.27;;;5.85;;
17177;SDS011;8704;52.006;4.374;2024-03-17T13:42:10;12.38;;;6.60;;
17177;SDS011;8704;52.006;4.374;2024-03-17T13:44:37;9.07;;;6.25;;
17177;SDS011;8704;52.006;4.374;2024-03-17T13:47:06;11.10;;;6.50;;
17177;SDS011;8704;52.006;4.374;2024-03-17T13:49:34;14.07;;;6.10;;
17177;SDS011;8704;52.006;4.374;2024-03-17T13:52:01;12.55;;;6.43;;
17177;SDS011;8704;52.006;4.374;2024-03-17T13:54:29;10.00;;;5.78;;
17177;SDS011;8704;52.006;4.374;2024-03-17T13:56:57;13.27;;;6.03;;
17177;SDS011;8704;52.006;4.374;2024-03-17T13:59:27;8.70;;;5.07;;
17177;SDS011;8704;52.006;4.374;2024-03-17T14:01:54;12.70;;;6.00;;
17177;SDS011;8704;52.006;4.374;2024-03-17T14:04:23;10.15;;;5.82;;
17177;SDS011;8704;52.006;4.374;2024-03-17T14:06:51;10.82;;;5.60;;
17177;SDS011;8704;52.006;4.374;2024-03-17T14:09:18;11.75;;;6.53;;
17177;SDS011;8704;52.006;4.374;2024-03-17T14:11:45;9.57;;;5.63;;
17177;SDS011;8704;52.006;4.374;2024-03-17T14:14:14;10.68;;;5.60;;
17177;SDS011;8704;52.006;4.374;2024-03-17T14:16:42;12.20;;;6.53;;
17177;SDS011;8704;52.006;4.374;2024-03-17T14:19:09;9.95;;;5.75;;
17177;SDS011;8704;52.006;4.374;2024-03-17T14:21:38;9.02;;;6.18;;
17177;SDS011;8704;52.006;4.374;2024-03-17T14:24:05;7.28;;;5.82;;
17177;SDS011;8704;52.006;4.374;2024-03-17T14:26:34;11.27;;;6.50;;
17177;SDS011;8704;52.006;4.374;2024-03-17T14:29:01;10.73;;;6.95;;
17177;SDS011;8704;52.006;4.374;2024-03-17T14:31:32;12.27;;;6.93;;
17177;SDS011;8704;52.006;4.374;2024-03-17T14:34:01;11.65;;;7.00;;
17177;SDS011;8704;52.006;4.374;2024-03-17T14:36:30;10.10;;;6.63;;
17177;SDS011;8704;52.006;4.374;2024-03-17T14:39:00;10.32;;;6.38;;
17177;SDS011;8704;52.006;4.374;2024-03-17T14:41:27;11.40;;;6.47;;
17177;SDS011;8704;52.006;4.374;2024-03-17T14:43:55;10.07;;;6.13;;
17177;SDS011;8704;52.006;4.374;2024-03-17T14:46:23;11.48;;;6.30;;
17177;SDS011;8704;52.006;4.374;2024-03-17T14:48:51;10.35;;;6.22;;
17177;SDS011;8704;52.006;4.374;2024-03-17T14:51:18;11.00;;;6.57;;
17177;SDS011;8704;52.006;4.374;2024-03-17T14:53:46;8.10;;;6.05;;
17177;SDS011;8704;52.006;4.374;2024-03-17T14:56:16;9.85;;;6.72;;
17177;SDS011;8704;52.006;4.374;2024-03-17T14:58:43;11.43;;;6.53;;
17177;SDS011;8704;52.006;4.374;2024-03-17T15:01:11;9.55;;;6.63;;
17177;SDS011;8704;52.006;4.374;2024-03-17T15:03:38;10.95;;;6.68;;
17177;SDS011;8704;52.006;4.374;2024-03-17T15:06:09;10.82;;;7.25;;
17177;SDS011;8704;52.006;4.374;2024-03-17T15:08:37;10.07;;;7.35;;
17177;SDS011;8704;52.006;4.374;2024-03-17T15:11:04;12.45;;;7.55;;
17177;SDS011;8704;52.006;4.374;2024-03-17T15:13:34;12.82;;;7.85;;